createdAt,value
2022-12-27T00:01:35.767Z,90.24
2022-12-27T00:04:03.729Z,90.11
2022-12-27T00:06:32.079Z,90.18
2022-12-27T00:09:01.134Z,89.87
2022-12-27T00:11:33.317Z,90.17
2022-12-27T00:14:02.341Z,90.18
2022-12-27T00:16:30.661Z,90.44
2022-12-27T00:18:58.760Z,90.09
2022-12-27T00:21:26.871Z,90.29
2022-12-27T00:23:55.861Z,90.22
2022-12-27T00:26:25.121Z,90.45
2022-12-27T00:28:53.446Z,90.18
2022-12-27T00:31:21.918Z,89.75
2022-12-27T00:33:50.844Z,89.87
2022-12-27T00:36:19.783Z,89.33
2022-12-27T00:38:47.919Z,89.06
2022-12-27T00:41:15.794Z,88.64
2022-12-27T00:43:43.907Z,87.54
2022-12-27T00:46:12.207Z,87.02
2022-12-27T00:48:40.342Z,87.06
2022-12-27T00:51:11.861Z,86.90
2022-12-27T00:53:39.710Z,87.03
2022-12-27T00:56:08.425Z,87.83
2022-12-27T00:58:40.792Z,87.96
2022-12-27T01:04:25.759Z,88.25
2022-12-27T01:06:54.020Z,87.79
2022-12-27T01:09:23.072Z,87.85
2022-12-27T01:11:51.504Z,87.92
2022-12-27T01:14:19.371Z,87.84
2022-12-27T01:16:48.110Z,88.55
2022-12-27T01:19:18.159Z,89.05
2022-12-27T01:21:47.245Z,89.87
2022-12-27T01:24:15.617Z,90.25
2022-12-27T01:26:43.987Z,90.75
2022-12-27T01:29:12.895Z,91.03
2022-12-27T01:31:44.068Z,91.29
2022-12-27T01:34:11.732Z,91.33
2022-12-27T01:36:39.322Z,91.47
2022-12-27T01:39:08.439Z,91.00
2022-12-27T01:41:56.345Z,91.35
2022-12-27T01:44:40.026Z,90.92
2022-12-27T01:47:20.776Z,91.03
2022-12-27T01:49:57.618Z,90.53
2022-12-27T01:52:28.490Z,90.38
2022-12-27T01:54:59.461Z,90.02
2022-12-27T01:57:27.588Z,89.88
2022-12-27T01:59:55.801Z,89.77
2022-12-27T02:02:25.026Z,89.74
2022-12-27T02:04:53.699Z,89.43
2022-12-27T02:07:25.934Z,89.13
2022-12-27T02:09:56.330Z,89.05
2022-12-27T02:12:25.500Z,89.08
2022-12-27T02:14:53.246Z,89.51
2022-12-27T02:17:28.921Z,90.22
2022-12-27T02:20:15.158Z,90.64
2022-12-27T02:23:13.774Z,91.33
2022-12-27T02:25:53.729Z,91.94
2022-12-27T02:28:40.200Z,93.56
2022-12-27T02:31:14.352Z,94.41
2022-12-27T02:33:47.025Z,94.50
2022-12-27T02:36:23.834Z,94.42
2022-12-27T02:38:53.848Z,94.95
2022-12-27T02:42:00.411Z,95.50
2022-12-27T02:44:47.528Z,96.42
2022-12-27T02:47:41.228Z,96.98
2022-12-27T02:50:28.992Z,97.33
2022-12-27T02:53:18.707Z,97.49
2022-12-27T02:56:23.162Z,97.40
2022-12-27T02:58:53.911Z,97.39
2022-12-27T03:01:49.708Z,97.24
2022-12-27T03:04:26.011Z,96.89
2022-12-27T03:06:56.589Z,97.11
2022-12-27T03:10:01.798Z,97.26
2022-12-27T03:13:07.288Z,96.56
2022-12-27T03:15:56.585Z,95.44
2022-12-27T03:18:43.097Z,95.08
2022-12-27T03:21:31.969Z,95.21
2022-12-27T03:24:37.684Z,95.10
2022-12-27T03:27:08.717Z,95.18
2022-12-27T03:29:55.060Z,95.12
2022-12-27T03:32:42.625Z,95.60
2022-12-27T03:35:17.742Z,95.81
2022-12-27T03:38:05.400Z,95.78
2022-12-27T03:41:03.026Z,95.23
2022-12-27T03:43:31.341Z,94.61
2022-12-27T03:46:32.301Z,93.80
2022-12-27T03:49:00.289Z,93.19
2022-12-27T03:51:30.280Z,92.67
2022-12-27T03:54:02.790Z,92.03
2022-12-27T03:56:30.586Z,91.21
2022-12-27T03:58:59.376Z,90.33
2022-12-27T04:01:27.236Z,90.15
2022-12-27T04:03:55.079Z,90.22
2022-12-27T04:06:22.712Z,90.30
2022-12-27T04:09:09.238Z,90.04
2022-12-27T04:11:55.720Z,90.25
2022-12-27T04:14:42.355Z,90.12
2022-12-27T04:17:29.040Z,90.02
2022-12-27T04:20:15.120Z,90.10
2022-12-27T04:23:01.414Z,89.90
2022-12-27T04:25:47.729Z,89.53
2022-12-27T04:28:34.309Z,89.41
2022-12-27T04:31:20.700Z,89.25
2022-12-27T04:34:07.340Z,89.23
2022-12-27T04:36:37.284Z,89.05
2022-12-27T04:39:05.226Z,89.01
2022-12-27T04:41:51.515Z,88.77
2022-12-27T04:44:38.080Z,88.28
2022-12-27T04:47:24.530Z,88.22
2022-12-27T04:50:11.360Z,87.84
2022-12-27T04:52:57.560Z,87.74
2022-12-27T04:55:28.143Z,87.23
2022-12-27T04:57:56.581Z,87.16
2022-12-27T05:00:44.777Z,87.07
2022-12-27T05:03:21.340Z,87.15
2022-12-27T05:05:50.493Z,87.23
2022-12-27T05:08:37.603Z,86.74
2022-12-27T05:11:24.925Z,86.63
2022-12-27T05:14:02.025Z,86.89
2022-12-27T05:16:35.633Z,86.70
2022-12-27T05:19:04.370Z,86.61
2022-12-27T05:21:35.118Z,86.37
2022-12-27T05:24:21.973Z,86.37
2022-12-27T05:26:49.903Z,86.12
2022-12-27T05:29:17.975Z,85.92
2022-12-27T05:31:45.865Z,85.66
2022-12-27T05:34:13.684Z,85.86
2022-12-27T05:36:41.456Z,85.84
2022-12-27T05:39:09.208Z,85.89
2022-12-27T05:41:36.998Z,85.58
2022-12-27T05:44:07.406Z,85.70
2022-12-27T05:46:35.961Z,85.60
2022-12-27T05:49:04.351Z,85.40
2022-12-27T05:51:31.985Z,85.25
2022-12-27T05:53:59.791Z,85.20
2022-12-27T05:56:28.840Z,85.14
2022-12-27T05:58:56.695Z,85.17
2022-12-27T06:01:24.445Z,85.10
2022-12-27T06:03:52.298Z,84.88
2022-12-27T06:06:19.984Z,84.76
2022-12-27T06:08:48.722Z,84.58
2022-12-27T06:11:17.603Z,84.58
2022-12-27T06:13:49.394Z,84.65
2022-12-27T06:16:17.750Z,84.67
2022-12-27T06:18:45.412Z,84.93
2022-12-27T06:21:15.330Z,84.92
2022-12-27T06:23:44.787Z,84.92
2022-12-27T06:26:14.011Z,84.90
2022-12-27T06:28:42.054Z,84.99
2022-12-27T06:31:11.144Z,85.00
2022-12-27T06:33:38.938Z,84.86
2022-12-27T06:36:08.218Z,85.02
2022-12-27T06:38:36.129Z,84.98
2022-12-27T06:41:08.358Z,85.01
2022-12-27T06:43:36.288Z,85.06
2022-12-27T06:46:05.871Z,85.04
2022-12-27T06:48:34.153Z,85.06
2022-12-27T06:51:05.724Z,84.87
2022-12-27T06:53:33.959Z,84.88
2022-12-27T06:56:05.518Z,84.83
2022-12-27T06:58:36.212Z,84.73
2022-12-27T07:01:09.727Z,84.64
2022-12-27T07:03:38.543Z,84.70
2022-12-27T07:06:07.167Z,84.31
2022-12-27T07:08:35.550Z,84.30
2022-12-27T07:11:05.007Z,83.74
2022-12-27T07:13:36.714Z,83.18
2022-12-27T07:16:05.954Z,82.99
2022-12-27T07:18:34.172Z,82.65
2022-12-27T07:21:06.550Z,82.34
2022-12-27T07:23:34.604Z,82.40
2022-12-27T07:26:10.489Z,81.97
2022-12-27T07:28:38.775Z,81.77
2022-12-27T07:31:10.878Z,81.52
2022-12-27T07:33:39.260Z,81.03
2022-12-27T07:36:08.834Z,81.12
2022-12-27T07:38:36.677Z,80.67
2022-12-27T07:41:04.777Z,80.46
2022-12-27T07:43:33.877Z,80.43
2022-12-27T07:46:06.348Z,80.24
2022-12-27T07:48:34.499Z,79.70
2022-12-27T07:51:02.639Z,79.72
2022-12-27T07:53:32.275Z,79.72
2022-12-27T07:56:00.086Z,79.31
2022-12-27T07:58:27.703Z,79.20
2022-12-27T08:00:55.868Z,79.00
2022-12-27T08:03:23.924Z,78.68
2022-12-27T08:05:54.593Z,78.96
2022-12-27T08:08:24.578Z,78.84
2022-12-27T08:10:52.410Z,78.27
2022-12-27T08:13:20.113Z,78.26
2022-12-27T08:15:49.293Z,77.60
2022-12-27T08:18:17.398Z,77.41
2022-12-27T08:20:45.565Z,77.15
2022-12-27T08:23:13.392Z,77.47
2022-12-27T08:25:48.335Z,76.70
2022-12-27T08:28:17.566Z,76.60
2022-12-27T08:30:47.611Z,76.52
2022-12-27T08:33:15.692Z,75.83
2022-12-27T08:35:54.792Z,75.91
2022-12-27T08:38:25.336Z,75.36
2022-12-27T08:40:53.160Z,74.86
2022-12-27T08:43:22.941Z,74.29
2022-12-27T08:45:51.410Z,74.37
2022-12-27T08:48:19.676Z,74.19
2022-12-27T08:50:47.735Z,74.22
2022-12-27T08:53:15.624Z,73.98
2022-12-27T08:55:43.448Z,73.64
2022-12-27T08:58:16.272Z,73.14
2022-12-27T09:00:45.038Z,73.38
2022-12-27T09:03:12.824Z,72.77
2022-12-27T09:05:42.097Z,72.60
2022-12-27T09:08:12.570Z,72.46
2022-12-27T09:10:40.498Z,72.08
2022-12-27T09:13:08.141Z,72.01
2022-12-27T09:15:37.464Z,71.65
2022-12-27T09:18:06.209Z,71.02
2022-12-27T09:20:34.027Z,70.93
2022-12-27T09:23:02.079Z,71.34
2022-12-27T09:25:29.870Z,70.21
2022-12-27T09:27:58.521Z,69.52
2022-12-27T09:30:26.576Z,69.48
2022-12-27T09:32:54.210Z,69.82
2022-12-27T09:35:21.864Z,69.27
2022-12-27T09:37:50.920Z,69.31
2022-12-27T09:40:19.078Z,69.46
2022-12-27T09:43:07.544Z,68.63
2022-12-27T09:45:47.138Z,69.23
2022-12-27T09:48:20.628Z,68.78
2022-12-27T09:50:51.286Z,68.22
2022-12-27T09:53:41.643Z,67.55
2022-12-27T09:56:12.164Z,67.49
2022-12-27T09:58:48.943Z,67.98
2022-12-27T10:01:24.440Z,67.46
2022-12-27T10:03:53.222Z,67.15
2022-12-27T10:06:40.303Z,67.23
2022-12-27T10:09:14.444Z,67.62
2022-12-27T10:11:49.580Z,66.87
2022-12-27T10:14:17.650Z,67.19
2022-12-27T10:16:48.280Z,66.66
2022-12-27T10:19:15.955Z,66.35
2022-12-27T10:21:54.009Z,65.99
2022-12-27T10:24:29.750Z,65.96
2022-12-27T10:26:57.575Z,65.72
2022-12-27T10:29:26.212Z,65.68
2022-12-27T10:31:53.844Z,65.50
2022-12-27T10:34:24.414Z,65.71
2022-12-27T10:36:53.095Z,65.32
2022-12-27T10:39:24.077Z,65.60
2022-12-27T10:41:57.238Z,65.49
2022-12-27T10:44:25.808Z,65.31
2022-12-27T10:46:53.992Z,64.29
2022-12-27T10:49:29.127Z,64.48
2022-12-27T10:51:59.291Z,64.45
2022-12-27T10:54:28.891Z,63.77
2022-12-27T10:56:57.449Z,63.53
2022-12-27T10:59:29.246Z,63.54
2022-12-27T11:02:00.112Z,62.90
2022-12-27T11:04:29.363Z,62.71
2022-12-27T11:07:00.003Z,62.75
2022-12-27T11:09:27.743Z,62.80
2022-12-27T11:12:16.145Z,63.00
2022-12-27T11:14:56.435Z,62.94
2022-12-27T11:17:26.692Z,63.00
2022-12-27T11:19:56.122Z,62.74
2022-12-27T11:22:23.921Z,62.07
2022-12-27T11:24:53.622Z,62.32
2022-12-27T11:27:26.038Z,62.22
2022-12-27T11:29:56.293Z,62.30
2022-12-27T11:32:24.224Z,62.15
2022-12-27T11:34:56.676Z,62.67
2022-12-27T11:37:26.281Z,62.13
2022-12-27T11:39:55.303Z,62.04
2022-12-27T11:42:44.813Z,62.10
2022-12-27T11:45:19.190Z,61.82
2022-12-27T11:47:56.728Z,61.92
2022-12-27T11:50:27.803Z,62.79
2022-12-27T11:53:12.058Z,62.15
2022-12-27T11:56:01.992Z,62.23
2022-12-27T11:58:49.350Z,62.37
2022-12-27T12:01:17.218Z,61.28
2022-12-27T12:03:45.155Z,60.69
2022-12-27T12:06:22.027Z,59.58
2022-12-27T12:09:02.357Z,58.54
2022-12-27T12:11:29.971Z,58.92
2022-12-27T12:13:58.047Z,58.80
2022-12-27T12:16:28.918Z,59.13
2022-12-27T12:19:03.507Z,59.33
2022-12-27T12:21:51.004Z,58.74
2022-12-27T12:24:31.460Z,58.57
2022-12-27T12:27:02.547Z,58.85
2022-12-27T12:29:58.059Z,58.99
2022-12-27T12:32:44.415Z,59.45
2022-12-27T12:35:16.156Z,59.83
2022-12-27T12:38:04.794Z,59.87
2022-12-27T12:41:00.553Z,60.49
2022-12-27T12:43:56.904Z,60.06
2022-12-27T12:46:28.729Z,60.35
2022-12-27T12:48:59.607Z,60.48
2022-12-27T12:51:30.173Z,60.82
2022-12-27T12:54:16.975Z,61.28
2022-12-27T12:56:57.097Z,61.22
2022-12-27T12:59:34.363Z,61.01
2022-12-27T13:02:18.565Z,61.24
2022-12-27T13:05:06.843Z,60.93
2022-12-27T13:07:55.901Z,61.09
2022-12-27T13:10:37.189Z,60.99
2022-12-27T13:13:16.167Z,60.96
2022-12-27T13:16:02.568Z,60.86
2022-12-27T13:18:49.731Z,61.10
2022-12-27T13:21:24.052Z,61.29
2022-12-27T13:24:18.759Z,61.69
2022-12-27T13:26:56.099Z,61.58
2022-12-27T13:29:48.536Z,61.54
2022-12-27T13:32:32.259Z,62.33
2022-12-27T13:35:27.030Z,62.67
2022-12-27T13:38:11.451Z,62.54
2022-12-27T13:41:05.873Z,62.87
2022-12-27T13:43:46.114Z,62.85
2022-12-27T13:46:40.063Z,63.31
2022-12-27T13:49:13.311Z,63.31
2022-12-27T13:51:49.905Z,63.54
2022-12-27T13:54:36.430Z,63.95
2022-12-27T13:57:17.368Z,63.61
2022-12-27T13:59:55.529Z,63.89
2022-12-27T14:02:26.492Z,64.06
2022-12-27T14:04:59.725Z,64.23
2022-12-27T14:07:46.474Z,64.31
2022-12-27T14:10:34.633Z,64.39
2022-12-27T14:13:09.351Z,64.56
2022-12-27T14:15:54.032Z,64.54
2022-12-27T14:18:36.818Z,64.85
2022-12-27T14:21:07.636Z,64.86
2022-12-27T14:23:52.159Z,65.03
2022-12-27T14:26:20.120Z,64.82
2022-12-27T14:28:47.821Z,65.13
2022-12-27T14:31:29.554Z,65.02
2022-12-27T14:34:16.368Z,65.24
2022-12-27T14:37:05.968Z,65.46
2022-12-27T14:39:33.882Z,65.44
2022-12-27T14:42:20.290Z,65.94
2022-12-27T14:44:51.229Z,65.88
2022-12-27T14:47:37.533Z,65.95
2022-12-27T14:50:21.326Z,66.29
2022-12-27T14:53:07.737Z,66.03
2022-12-27T14:55:39.754Z,65.91
2022-12-27T14:58:24.936Z,66.10
2022-12-27T15:01:00.450Z,66.37
2022-12-27T15:03:35.926Z,66.50
2022-12-27T15:06:30.380Z,66.73
2022-12-27T15:09:06.814Z,66.63
2022-12-27T15:11:58.613Z,66.58
2022-12-27T15:14:49.007Z,66.80
2022-12-27T15:17:31.364Z,66.76
2022-12-27T15:20:14.859Z,66.84
2022-12-27T15:22:51.825Z,66.98
2022-12-27T15:25:28.839Z,66.96
2022-12-27T15:28:14.350Z,67.39
2022-12-27T15:30:57.436Z,67.63
2022-12-27T15:33:33.815Z,67.81
2022-12-27T15:36:05.058Z,68.35
2022-12-27T15:38:41.055Z,67.66
2022-12-27T15:41:08.992Z,67.45
2022-12-27T15:43:46.628Z,67.40
2022-12-27T15:46:23.546Z,67.42
2022-12-27T15:49:12.179Z,67.52
2022-12-27T15:52:02.436Z,67.75
2022-12-27T15:54:30.364Z,67.64
2022-12-27T15:57:04.208Z,67.65
2022-12-27T15:59:45.799Z,67.63
2022-12-27T16:02:32.083Z,67.81
2022-12-27T16:05:00.366Z,67.90
2022-12-27T16:07:46.975Z,67.96
2022-12-27T16:10:30.508Z,68.51
2022-12-27T16:13:01.110Z,68.86
2022-12-27T16:15:53.681Z,69.12
2022-12-27T16:18:21.662Z,69.02
2022-12-27T16:20:58.768Z,69.36
2022-12-27T16:23:37.471Z,68.96
2022-12-27T16:26:05.253Z,69.02
2022-12-27T16:28:34.105Z,68.72
2022-12-27T16:31:02.998Z,69.10
2022-12-27T16:33:33.467Z,69.18
2022-12-27T16:36:19.877Z,68.87
2022-12-27T16:38:56.684Z,68.72
2022-12-27T16:41:33.139Z,68.81
2022-12-27T16:44:01.142Z,68.54
2022-12-27T16:46:54.198Z,68.72
2022-12-27T16:49:31.799Z,68.41
2022-12-27T16:52:06.925Z,68.50
2022-12-27T16:54:34.861Z,68.23
2022-12-27T16:57:21.177Z,68.36
2022-12-27T17:00:03.405Z,68.56
2022-12-27T17:02:36.907Z,68.37
2022-12-27T17:05:25.393Z,68.42
2022-12-27T17:07:53.067Z,68.08
2022-12-27T17:10:34.858Z,68.50
2022-12-27T17:13:14.935Z,68.31
2022-12-27T17:16:01.703Z,68.15
2022-12-27T17:18:31.925Z,67.95
2022-12-27T17:21:05.477Z,68.21
2022-12-27T17:23:38.027Z,68.27
2022-12-27T17:26:26.905Z,68.30
2022-12-27T17:29:01.745Z,68.39
2022-12-27T17:31:45.190Z,68.67
2022-12-27T17:34:18.706Z,68.06
2022-12-27T17:36:46.576Z,68.60
2022-12-27T17:39:19.960Z,68.60
2022-12-27T17:42:24.924Z,68.35
2022-12-27T17:44:52.553Z,68.53
2022-12-27T17:47:38.904Z,68.64
2022-12-27T17:50:12.551Z,68.42
2022-12-27T17:52:59.107Z,68.98
2022-12-27T17:55:47.609Z,68.61
2022-12-27T17:58:16.877Z,68.75
2022-12-27T18:00:53.805Z,68.86
2022-12-27T18:03:22.695Z,68.78
2022-12-27T18:05:50.628Z,68.85
2022-12-27T18:08:24.859Z,69.19
2022-12-27T18:10:52.943Z,69.34
2022-12-27T18:13:22.838Z,69.24
2022-12-27T18:15:50.937Z,69.73
2022-12-27T18:18:29.493Z,69.75
2022-12-27T18:20:57.909Z,69.74
2022-12-27T18:23:26.507Z,70.00
2022-12-27T18:25:55.683Z,70.31
2022-12-27T18:28:32.556Z,70.32
2022-12-27T18:31:25.772Z,70.51
2022-12-27T18:33:55.215Z,70.46
2022-12-27T18:36:46.486Z,70.68
2022-12-27T18:39:17.535Z,70.77
2022-12-27T18:41:49.919Z,70.99
2022-12-27T18:44:26.486Z,71.06
2022-12-27T18:46:56.316Z,71.18
2022-12-27T18:49:34.803Z,71.47
2022-12-27T18:52:12.163Z,71.37
2022-12-27T18:54:39.801Z,71.51
2022-12-27T18:57:27.513Z,71.65
2022-12-27T19:00:02.588Z,72.00
2022-12-27T19:02:36.196Z,71.98
2022-12-27T19:05:19.119Z,72.02
2022-12-27T19:07:48.180Z,72.02
2022-12-27T19:10:18.549Z,72.19
2022-12-27T19:12:46.621Z,72.18
2022-12-27T19:15:16.735Z,72.27
2022-12-27T19:17:47.661Z,72.24
2022-12-27T19:20:24.509Z,72.12
2022-12-27T19:22:55.279Z,72.06
2022-12-27T19:25:24.981Z,72.00
2022-12-27T19:28:00.131Z,72.13
2022-12-27T19:30:34.188Z,72.12
2022-12-27T19:33:03.364Z,71.80
2022-12-27T19:35:31.153Z,71.91
2022-12-27T19:38:00.888Z,71.88
2022-12-27T19:40:28.536Z,71.80
2022-12-27T19:42:56.657Z,71.76
2022-12-27T19:45:24.284Z,71.64
2022-12-27T19:47:54.551Z,71.67
2022-12-27T19:50:22.603Z,71.56
2022-12-27T19:52:50.809Z,71.63
2022-12-27T19:55:21.880Z,71.43
2022-12-27T19:57:49.721Z,71.45
2022-12-27T20:00:18.006Z,71.51
2022-12-27T20:02:45.879Z,71.35
2022-12-27T20:05:13.980Z,71.44
2022-12-27T20:07:41.822Z,71.24
2022-12-27T20:10:13.163Z,71.09
2022-12-27T20:12:41.157Z,70.87
2022-12-27T20:15:08.988Z,70.48
2022-12-27T20:17:42.716Z,70.50
2022-12-27T20:20:12.711Z,70.63
2022-12-27T20:22:40.380Z,70.13
2022-12-27T20:25:08.211Z,70.32
2022-12-27T20:27:36.264Z,70.17
2022-12-27T20:30:04.544Z,70.27
2022-12-27T20:32:32.192Z,70.14
2022-12-27T20:35:00.142Z,70.30
2022-12-27T20:37:27.851Z,70.33
2022-12-27T20:39:55.571Z,70.17
2022-12-27T20:42:24.519Z,70.23
2022-12-27T20:44:52.918Z,70.28
2022-12-27T20:47:20.579Z,70.12
2022-12-27T20:49:48.544Z,70.35
2022-12-27T20:52:16.377Z,70.25
2022-12-27T20:54:44.231Z,70.20
2022-12-27T20:57:12.222Z,70.45
2022-12-27T20:59:39.912Z,70.18
2022-12-27T21:02:07.796Z,70.55
2022-12-27T21:04:35.743Z,70.50
2022-12-27T21:07:03.458Z,70.56
2022-12-27T21:09:31.096Z,70.37
2022-12-27T21:11:59.798Z,70.74
2022-12-27T21:14:30.424Z,70.87
2022-12-27T21:16:58.736Z,70.85
2022-12-27T21:19:26.573Z,70.83
2022-12-27T21:21:54.147Z,70.86
2022-12-27T21:24:21.843Z,71.14
2022-12-27T21:26:54.670Z,71.06
2022-12-27T21:29:24.224Z,71.10
2022-12-27T21:31:53.425Z,71.20
2022-12-27T21:34:21.181Z,71.28
2022-12-27T21:36:51.933Z,71.36
2022-12-27T21:39:20.290Z,71.52
2022-12-27T21:41:47.987Z,71.68
2022-12-27T21:44:16.611Z,71.61
2022-12-27T21:46:44.965Z,71.78
2022-12-27T21:49:16.143Z,71.80
2022-12-27T21:51:44.663Z,71.75
2022-12-27T21:54:13.937Z,71.91
2022-12-27T21:56:42.020Z,71.79
2022-12-27T21:59:11.920Z,72.14
2022-12-27T22:01:49.610Z,72.04
2022-12-27T22:04:19.247Z,72.19
2022-12-27T22:06:48.061Z,72.26
2022-12-27T22:09:16.261Z,72.28
2022-12-27T22:11:44.090Z,72.40
2022-12-27T22:14:11.988Z,72.53
2022-12-27T22:16:40.756Z,72.63
2022-12-27T22:19:09.273Z,72.67
2022-12-27T22:21:38.094Z,72.83
2022-12-27T22:24:06.026Z,72.67
2022-12-27T22:26:35.010Z,72.73
2022-12-27T22:29:04.174Z,72.83
2022-12-27T22:31:35.464Z,72.74
2022-12-27T22:34:03.900Z,72.69
2022-12-27T22:36:32.179Z,72.56
2022-12-27T22:39:00.028Z,72.47
2022-12-27T22:41:29.193Z,72.62
2022-12-27T22:44:01.026Z,72.60
2022-12-27T22:46:51.337Z,72.53
2022-12-27T22:49:18.495Z,72.63
2022-12-27T22:51:46.150Z,72.52
2022-12-27T22:54:13.758Z,72.53
2022-12-27T22:56:42.445Z,72.60
2022-12-27T22:59:11.597Z,72.50
2022-12-27T23:01:40.093Z,72.49
2022-12-27T23:04:09.001Z,72.48
2022-12-27T23:06:36.747Z,72.31
2022-12-27T23:09:05.375Z,72.30
2022-12-27T23:11:35.106Z,72.25
2022-12-27T23:14:07.100Z,72.19
2022-12-27T23:16:45.575Z,72.16
2022-12-27T23:19:14.083Z,72.26
2022-12-27T23:21:42.240Z,72.04
2022-12-27T23:24:10.119Z,72.10
2022-12-27T23:26:38.233Z,72.07
2022-12-27T23:29:06.700Z,71.98
2022-12-27T23:31:34.426Z,71.96
2022-12-27T23:34:02.550Z,72.00
2022-12-27T23:36:33.614Z,71.88
2022-12-27T23:39:01.302Z,71.81
2022-12-27T23:41:28.993Z,71.73
2022-12-27T23:43:59.243Z,71.79
2022-12-27T23:46:28.824Z,71.76
2022-12-27T23:48:57.665Z,71.76
2022-12-27T23:51:25.793Z,71.66
2022-12-27T23:53:53.918Z,71.78
2022-12-27T23:56:21.575Z,71.83
2022-12-27T23:58:50.379Z,72.08
